createdAt,value
2023-02-15T00:01:21.484Z,2.55
2023-02-15T00:03:50.522Z,2.48
2023-02-15T00:06:19.544Z,2.52
2023-02-15T00:08:51.678Z,2.50
2023-02-15T00:11:40.740Z,2.44
2023-02-15T00:14:10.873Z,2.36
2023-02-15T00:16:41.277Z,2.44
2023-02-15T00:19:10.277Z,2.37
2023-02-15T00:21:39.448Z,2.35
2023-02-15T00:24:09.249Z,2.35
2023-02-15T00:26:38.040Z,2.37
2023-02-15T00:29:06.720Z,2.35
2023-02-15T00:31:35.655Z,2.31
2023-02-15T00:34:06.985Z,2.32
2023-02-15T00:36:35.754Z,2.11
2023-02-15T00:39:04.340Z,2.23
2023-02-15T00:41:32.983Z,2.26
2023-02-15T00:44:01.556Z,2.22
2023-02-15T00:46:31.648Z,2.19
2023-02-15T00:49:00.232Z,2.18
2023-02-15T00:51:30.350Z,2.16
2023-02-15T00:53:59.136Z,2.17
2023-02-15T00:56:29.511Z,2.24
2023-02-15T00:58:58.234Z,2.15
2023-02-15T01:01:27.052Z,2.14
2023-02-15T01:03:55.739Z,2.18
2023-02-15T01:06:24.352Z,2.20
2023-02-15T01:08:54.271Z,2.13
2023-02-15T01:11:24.167Z,2.17
2023-02-15T01:13:53.690Z,2.28
2023-02-15T01:16:22.694Z,2.28
2023-02-15T01:18:51.430Z,2.32
2023-02-15T01:21:21.944Z,2.46
2023-02-15T01:23:50.913Z,2.45
2023-02-15T01:26:20.967Z,2.51
2023-02-15T01:28:50.080Z,2.51
2023-02-15T01:31:20.510Z,2.54
2023-02-15T01:33:49.520Z,2.65
2023-02-15T01:36:18.659Z,2.73
2023-02-15T01:38:47.262Z,2.71
2023-02-15T01:41:28.909Z,2.62
2023-02-15T01:43:59.892Z,2.76
2023-02-15T01:46:30.811Z,2.81
2023-02-15T01:49:02.027Z,2.79
2023-02-15T01:51:32.754Z,2.81
2023-02-15T01:54:04.024Z,2.82
2023-02-15T01:56:35.945Z,2.81
2023-02-15T01:59:10.112Z,2.83
2023-02-15T02:01:39.862Z,2.89
2023-02-15T02:04:12.281Z,2.95
2023-02-15T02:06:41.624Z,3.02
2023-02-15T02:09:11.329Z,3.13
2023-02-15T02:11:41.499Z,3.02
2023-02-15T02:14:11.555Z,3.01
2023-02-15T02:16:44.979Z,3.01
2023-02-15T02:19:27.433Z,2.92
2023-02-15T02:22:14.382Z,3.02
2023-02-15T02:24:58.723Z,2.87
2023-02-15T02:27:32.062Z,3.06
2023-02-15T02:30:29.302Z,2.96
2023-02-15T02:33:10.412Z,3.05
2023-02-15T02:35:44.271Z,3.06
2023-02-15T02:38:17.226Z,3.12
2023-02-15T02:40:53.039Z,3.03
2023-02-15T02:43:23.704Z,3.06
2023-02-15T02:45:55.668Z,2.95
2023-02-15T02:48:27.172Z,3.03
2023-02-15T02:50:55.760Z,2.95
2023-02-15T02:53:24.402Z,3.06
2023-02-15T02:55:55.334Z,3.08
2023-02-15T02:58:27.690Z,2.97
2023-02-15T03:00:57.769Z,2.91
2023-02-15T03:03:34.898Z,2.96
2023-02-15T03:06:05.892Z,2.89
2023-02-15T03:08:38.394Z,2.93
2023-02-15T03:11:07.309Z,2.94
2023-02-15T03:13:36.760Z,3.01
2023-02-15T03:16:25.443Z,2.97
2023-02-15T03:18:59.173Z,2.99
2023-02-15T03:21:32.746Z,2.98
2023-02-15T03:24:03.285Z,2.95
2023-02-15T03:26:32.912Z,2.95
2023-02-15T03:29:04.356Z,2.96
2023-02-15T03:31:35.893Z,2.99
2023-02-15T03:34:07.349Z,3.01
2023-02-15T03:36:41.852Z,2.96
2023-02-15T03:39:16.234Z,3.04
2023-02-15T03:41:51.270Z,3.08
2023-02-15T03:44:22.724Z,3.13
2023-02-15T03:46:54.435Z,3.00
2023-02-15T03:49:26.635Z,3.16
2023-02-15T03:51:57.102Z,3.19
2023-02-15T03:54:47.073Z,3.19
2023-02-15T03:57:34.572Z,3.13
2023-02-15T04:00:23.721Z,3.07
2023-02-15T04:02:59.083Z,3.11
2023-02-15T04:05:29.131Z,3.10
2023-02-15T04:07:57.823Z,3.10
2023-02-15T04:10:43.659Z,3.12
2023-02-15T04:13:12.344Z,3.18
2023-02-15T04:16:01.553Z,3.19
2023-02-15T04:18:47.570Z,3.13
2023-02-15T04:21:34.991Z,3.16
2023-02-15T04:24:20.594Z,3.21
2023-02-15T04:26:49.882Z,3.07
2023-02-15T04:29:18.530Z,3.17
2023-02-15T04:31:47.269Z,3.14
2023-02-15T04:34:15.882Z,3.13
2023-02-15T04:36:45.841Z,3.15
2023-02-15T04:39:15.649Z,3.07
2023-02-15T04:41:44.244Z,3.11
2023-02-15T04:44:12.856Z,3.02
2023-02-15T04:46:41.394Z,3.03
2023-02-15T04:49:10.224Z,3.05
2023-02-15T04:51:38.893Z,3.00
2023-02-15T04:54:08.927Z,3.03
2023-02-15T04:56:38.989Z,3.04
2023-02-15T04:59:07.659Z,3.02
2023-02-15T05:01:36.240Z,3.06
2023-02-15T05:04:05.007Z,2.98
2023-02-15T05:06:33.640Z,2.95
2023-02-15T05:09:02.328Z,3.00
2023-02-15T05:11:32.382Z,2.88
2023-02-15T05:14:01.166Z,2.99
2023-02-15T05:16:30.071Z,2.96
2023-02-15T05:18:58.738Z,3.00
2023-02-15T05:21:27.501Z,3.05
2023-02-15T05:23:56.186Z,2.96
2023-02-15T05:26:44.034Z,3.09
2023-02-15T05:29:14.216Z,3.08
2023-02-15T05:31:43.312Z,2.95
2023-02-15T05:34:12.130Z,2.92
2023-02-15T05:36:40.942Z,3.05
2023-02-15T05:39:09.738Z,3.10
2023-02-15T05:41:38.404Z,2.99
2023-02-15T05:44:07.242Z,2.97
2023-02-15T05:46:37.331Z,3.07
2023-02-15T05:49:05.879Z,3.15
2023-02-15T05:51:34.675Z,3.13
2023-02-15T05:54:03.342Z,3.27
2023-02-15T05:56:31.948Z,3.30
2023-02-15T05:59:00.673Z,3.39
2023-02-15T06:01:29.339Z,3.39
2023-02-15T06:03:59.562Z,3.48
2023-02-15T06:06:28.235Z,3.42
2023-02-15T06:08:57.002Z,3.43
2023-02-15T06:11:25.688Z,3.55
2023-02-15T06:13:54.376Z,3.57
2023-02-15T06:16:23.059Z,3.52
2023-02-15T06:18:53.688Z,3.79
2023-02-15T06:21:23.937Z,3.80
2023-02-15T06:23:52.748Z,3.79
2023-02-15T06:26:24.665Z,3.81
2023-02-15T06:28:53.253Z,3.83
2023-02-15T06:31:21.952Z,3.84
2023-02-15T06:33:50.671Z,3.75
2023-02-15T06:36:19.425Z,3.98
2023-02-15T06:38:49.483Z,4.19
2023-02-15T06:41:18.121Z,4.13
2023-02-15T06:43:46.762Z,4.28
2023-02-15T06:46:15.543Z,4.60
2023-02-15T06:48:44.245Z,4.74
2023-02-15T06:51:12.933Z,5.13
2023-02-15T06:53:43.877Z,5.54
2023-02-15T06:56:14.288Z,5.95
2023-02-15T06:58:43.436Z,6.37
2023-02-15T07:01:12.132Z,6.59
2023-02-15T07:03:41.053Z,6.55
2023-02-15T07:06:11.876Z,6.32
2023-02-15T07:08:41.099Z,6.74
2023-02-15T07:11:26.281Z,7.11
2023-02-15T07:13:56.331Z,7.13
2023-02-15T07:16:25.183Z,7.26
2023-02-15T07:18:53.886Z,7.17
2023-02-15T07:21:22.576Z,7.47
2023-02-15T07:23:51.223Z,7.25
2023-02-15T07:26:19.915Z,7.31
2023-02-15T07:28:48.586Z,7.31
2023-02-15T07:31:18.831Z,7.11
2023-02-15T07:33:47.522Z,7.43
2023-02-15T07:36:16.065Z,7.47
2023-02-15T07:38:46.022Z,6.99
2023-02-15T07:41:15.566Z,6.91
2023-02-15T07:43:45.542Z,6.74
2023-02-15T07:46:15.962Z,6.19
2023-02-15T07:48:46.251Z,6.32
2023-02-15T07:51:18.021Z,5.93
2023-02-15T07:53:46.716Z,5.75
2023-02-15T07:56:16.600Z,6.17
2023-02-15T07:58:53.975Z,6.43
2023-02-15T08:01:23.387Z,6.42
2023-02-15T08:03:54.012Z,6.59
2023-02-15T08:06:22.954Z,6.68
2023-02-15T08:08:51.667Z,6.86
2023-02-15T08:11:27.686Z,7.07
2023-02-15T08:13:57.445Z,7.20
2023-02-15T08:16:26.545Z,7.69
2023-02-15T08:18:57.072Z,7.64
2023-02-15T08:21:27.279Z,8.03
2023-02-15T08:23:56.018Z,7.65
2023-02-15T08:26:24.986Z,7.61
2023-02-15T08:28:53.959Z,8.12
2023-02-15T08:31:22.972Z,7.72
2023-02-15T08:33:52.360Z,7.46
2023-02-15T08:36:25.008Z,7.14
2023-02-15T08:38:53.768Z,6.80
2023-02-15T08:41:23.426Z,6.47
2023-02-15T08:43:54.843Z,6.50
2023-02-15T08:46:24.107Z,6.13
2023-02-15T08:48:53.219Z,6.53
2023-02-15T08:51:24.239Z,7.20
2023-02-15T08:53:53.734Z,7.67
2023-02-15T08:56:23.382Z,7.80
2023-02-15T08:58:52.077Z,8.22
2023-02-15T09:01:21.607Z,8.40
2023-02-15T09:03:51.667Z,8.59
2023-02-15T09:06:20.411Z,8.06
2023-02-15T09:08:50.585Z,8.57
2023-02-15T09:11:23.988Z,8.41
2023-02-15T09:13:54.898Z,8.36
2023-02-15T09:16:24.304Z,8.30
2023-02-15T09:18:53.221Z,8.02
2023-02-15T09:21:23.250Z,7.93
2023-02-15T09:23:54.236Z,7.86
2023-02-15T09:26:23.925Z,7.62
2023-02-15T09:28:54.482Z,7.46
2023-02-15T09:31:23.662Z,7.42
2023-02-15T09:33:52.512Z,7.60
2023-02-15T09:36:22.830Z,7.06
2023-02-15T09:38:57.477Z,6.85
2023-02-15T09:41:32.107Z,6.79
2023-02-15T09:44:06.945Z,6.80
2023-02-15T09:46:47.100Z,7.02
2023-02-15T09:49:19.530Z,7.15
2023-02-15T09:52:00.221Z,6.92
2023-02-15T09:54:54.108Z,6.67
2023-02-15T09:57:27.283Z,6.84
2023-02-15T10:00:02.885Z,6.68
2023-02-15T10:02:50.575Z,6.65
2023-02-15T10:05:26.550Z,6.56
2023-02-15T10:08:15.802Z,6.39
2023-02-15T10:10:51.585Z,6.35
2023-02-15T10:13:26.923Z,6.44
2023-02-15T10:16:00.100Z,6.41
2023-02-15T10:18:38.963Z,6.47
2023-02-15T10:21:11.298Z,6.37
2023-02-15T10:23:50.115Z,6.46
2023-02-15T10:26:21.709Z,6.45
2023-02-15T10:28:51.698Z,6.34
2023-02-15T10:31:26.111Z,6.40
2023-02-15T10:34:03.465Z,6.47
2023-02-15T10:36:40.467Z,6.35
2023-02-15T10:39:12.712Z,6.38
2023-02-15T10:41:47.471Z,6.10
2023-02-15T10:44:30.953Z,6.06
2023-02-15T10:47:13.042Z,5.99
2023-02-15T10:49:48.932Z,5.98
2023-02-15T10:52:24.567Z,5.94
2023-02-15T10:55:00.457Z,5.94
2023-02-15T10:57:36.901Z,5.99
2023-02-15T11:00:12.617Z,6.14
2023-02-15T11:02:48.397Z,6.14
2023-02-15T11:05:28.840Z,6.21
2023-02-15T11:08:02.020Z,6.44
2023-02-15T11:10:32.871Z,6.75
2023-02-15T11:13:04.836Z,6.90
2023-02-15T11:15:35.885Z,6.74
2023-02-15T11:18:06.685Z,6.65
2023-02-15T11:20:39.190Z,6.39
2023-02-15T11:23:16.513Z,6.42
2023-02-15T11:25:47.180Z,6.46
2023-02-15T11:28:20.894Z,6.50
2023-02-15T11:30:52.876Z,6.47
2023-02-15T11:33:27.756Z,6.41
2023-02-15T11:35:59.161Z,6.32
2023-02-15T11:38:30.185Z,6.33
2023-02-15T11:40:59.932Z,6.50
2023-02-15T11:43:38.561Z,6.74
2023-02-15T11:46:07.784Z,6.67
2023-02-15T11:48:37.366Z,6.87
2023-02-15T11:51:06.459Z,7.33
2023-02-15T11:53:36.109Z,7.62
2023-02-15T11:56:07.257Z,7.58
2023-02-15T11:58:40.450Z,7.52
2023-02-15T12:01:14.174Z,7.20
2023-02-15T12:03:47.114Z,7.45
2023-02-15T12:06:22.544Z,7.36
2023-02-15T12:08:53.853Z,7.24
2023-02-15T12:11:23.596Z,7.18
2023-02-15T12:14:00.803Z,7.31
2023-02-15T12:16:30.277Z,7.49
2023-02-15T12:19:00.276Z,7.82
2023-02-15T12:21:31.443Z,7.93
2023-02-15T12:24:02.821Z,7.88
2023-02-15T12:26:33.034Z,7.80
2023-02-15T12:29:04.165Z,7.83
2023-02-15T12:31:35.772Z,7.79
2023-02-15T12:34:10.264Z,8.10
2023-02-15T12:36:45.727Z,8.06
2023-02-15T12:39:24.295Z,7.99
2023-02-15T12:42:03.193Z,8.34
2023-02-15T12:44:34.074Z,7.94
2023-02-15T12:47:04.907Z,7.62
2023-02-15T12:49:34.361Z,7.65
2023-02-15T12:52:03.861Z,7.96
2023-02-15T12:54:37.030Z,7.99
2023-02-15T12:57:26.662Z,8.10
2023-02-15T12:59:58.008Z,8.18
2023-02-15T13:02:28.664Z,8.25
2023-02-15T13:04:58.923Z,8.29
2023-02-15T13:07:28.153Z,7.98
2023-02-15T13:09:56.811Z,7.65
2023-02-15T13:12:27.691Z,7.88
2023-02-15T13:14:58.060Z,7.99
2023-02-15T13:17:30.666Z,7.82
2023-02-15T13:20:01.137Z,7.70
2023-02-15T13:22:35.622Z,7.70
2023-02-15T13:25:07.787Z,7.59
2023-02-15T13:27:38.766Z,7.61
2023-02-15T13:30:19.738Z,7.80
2023-02-15T13:32:51.001Z,7.64
2023-02-15T13:35:21.965Z,7.39
2023-02-15T13:37:58.142Z,7.04
2023-02-15T13:40:28.663Z,7.19
2023-02-15T13:42:59.156Z,7.13
2023-02-15T13:45:36.239Z,7.27
2023-02-15T13:48:11.615Z,7.19
2023-02-15T13:50:46.202Z,6.99
2023-02-15T13:53:22.515Z,6.98
2023-02-15T13:55:53.454Z,7.02
2023-02-15T13:58:36.476Z,6.90
2023-02-15T14:01:11.463Z,6.73
2023-02-15T14:04:04.046Z,6.50
2023-02-15T14:06:41.208Z,6.64
2023-02-15T14:09:16.042Z,6.54
2023-02-15T14:11:51.057Z,6.52
2023-02-15T14:14:33.131Z,6.66
2023-02-15T14:17:07.687Z,6.63
2023-02-15T14:19:42.517Z,6.71
2023-02-15T14:22:17.029Z,6.91
2023-02-15T14:24:50.360Z,7.08
2023-02-15T14:27:25.883Z,7.11
2023-02-15T14:29:56.514Z,7.07
2023-02-15T14:32:30.985Z,7.12
2023-02-15T14:35:01.012Z,7.02
2023-02-15T14:37:44.645Z,6.67
2023-02-15T14:40:35.678Z,6.65
2023-02-15T14:43:10.419Z,6.67
2023-02-15T14:45:44.120Z,6.53
2023-02-15T14:48:18.903Z,6.47
2023-02-15T14:50:48.308Z,6.32
2023-02-15T14:53:27.259Z,6.33
2023-02-15T14:56:14.929Z,6.34
2023-02-15T14:58:57.645Z,6.33
2023-02-15T15:01:28.442Z,6.39
2023-02-15T15:04:00.976Z,6.44
2023-02-15T15:06:31.725Z,6.21
2023-02-15T15:09:02.698Z,6.09
2023-02-15T15:11:44.513Z,5.75
2023-02-15T15:14:34.002Z,5.63
2023-02-15T15:17:03.311Z,5.46
2023-02-15T15:20:05.428Z,5.25
2023-02-15T15:22:37.005Z,5.07
2023-02-15T15:25:07.094Z,5.06
2023-02-15T15:27:39.638Z,4.84
2023-02-15T15:30:23.441Z,4.96
2023-02-15T15:32:59.741Z,4.95
2023-02-15T15:35:34.222Z,4.82
2023-02-15T15:38:17.003Z,4.82
2023-02-15T15:41:00.782Z,4.79
2023-02-15T15:43:43.590Z,4.95
2023-02-15T15:46:17.853Z,4.82
2023-02-15T15:48:46.577Z,4.80
2023-02-15T15:51:17.821Z,4.78
2023-02-15T15:53:50.225Z,4.68
2023-02-15T15:56:21.601Z,4.69
2023-02-15T15:58:53.301Z,4.67
2023-02-15T16:01:27.316Z,4.54
2023-02-15T16:03:57.561Z,4.56
2023-02-15T16:06:30.316Z,4.44
2023-02-15T16:09:12.064Z,4.31
2023-02-15T16:11:42.171Z,4.40
2023-02-15T16:14:14.314Z,4.35
2023-02-15T16:16:43.562Z,4.32
2023-02-15T16:19:19.495Z,4.31
2023-02-15T16:21:50.048Z,4.30
2023-02-15T16:24:29.514Z,4.28
2023-02-15T16:27:12.991Z,4.19
2023-02-15T16:29:41.916Z,4.22
2023-02-15T16:32:22.241Z,4.13
2023-02-15T16:34:58.156Z,4.12
2023-02-15T16:37:28.487Z,4.23
2023-02-15T16:39:58.778Z,4.20
2023-02-15T16:42:27.597Z,4.13
2023-02-15T16:44:58.093Z,4.05
2023-02-15T16:47:27.888Z,4.06
2023-02-15T16:49:58.529Z,4.01
2023-02-15T16:52:27.875Z,3.94
2023-02-15T16:55:00.547Z,3.84
2023-02-15T16:57:32.100Z,3.84
2023-02-15T17:00:04.439Z,3.76
2023-02-15T17:02:55.739Z,3.69
2023-02-15T17:05:23.041Z,3.69
2023-02-15T17:07:53.580Z,3.64
2023-02-15T17:10:31.328Z,3.54
2023-02-15T17:13:03.465Z,3.52
2023-02-15T17:15:33.623Z,3.47
2023-02-15T17:18:04.528Z,3.45
2023-02-15T17:20:35.954Z,3.26
2023-02-15T17:23:06.061Z,3.33
2023-02-15T17:25:38.550Z,3.29
2023-02-15T17:28:08.342Z,3.21
2023-02-15T17:30:40.071Z,3.18
2023-02-15T17:33:21.635Z,3.17
2023-02-15T17:36:05.260Z,3.09
2023-02-15T17:38:34.475Z,3.04
2023-02-15T17:41:05.016Z,3.04
2023-02-15T17:43:33.929Z,2.99
2023-02-15T17:46:02.672Z,2.94
2023-02-15T17:48:33.517Z,2.93
2023-02-15T17:51:03.064Z,2.90
2023-02-15T17:53:32.390Z,2.84
2023-02-15T17:56:00.104Z,2.81
2023-02-15T17:58:30.315Z,2.71
2023-02-15T18:01:17.239Z,2.75
2023-02-15T18:04:06.051Z,2.78
2023-02-15T18:06:52.360Z,2.74
2023-02-15T18:09:39.571Z,2.73
2023-02-15T18:12:16.950Z,2.69
2023-02-15T18:14:47.089Z,2.64
2023-02-15T18:17:16.499Z,2.62
2023-02-15T18:19:45.830Z,2.57
2023-02-15T18:22:15.301Z,2.44
2023-02-15T18:24:44.195Z,2.46
2023-02-15T18:27:13.315Z,2.30
2023-02-15T18:29:42.218Z,2.16
2023-02-15T18:32:17.512Z,2.30
2023-02-15T18:34:46.332Z,2.00
2023-02-15T18:37:17.058Z,2.21
2023-02-15T18:39:47.868Z,1.97
2023-02-15T18:42:20.815Z,1.85
2023-02-15T18:44:49.478Z,1.59
2023-02-15T18:47:19.612Z,1.80
2023-02-15T18:49:48.388Z,1.99
2023-02-15T18:52:18.974Z,2.04
2023-02-15T18:54:48.493Z,1.92
2023-02-15T18:57:17.847Z,2.11
2023-02-15T18:59:46.614Z,2.08
2023-02-15T19:02:15.828Z,2.07
2023-02-15T19:04:46.809Z,1.98
2023-02-15T19:07:18.649Z,2.09
2023-02-15T19:09:49.432Z,1.89
2023-02-15T19:12:19.699Z,2.14
2023-02-15T19:14:48.680Z,2.14
2023-02-15T19:17:19.204Z,2.08
2023-02-15T19:19:49.428Z,2.15
2023-02-15T19:22:20.604Z,2.17
2023-02-15T19:24:49.800Z,2.14
2023-02-15T19:27:22.467Z,2.14
2023-02-15T19:29:51.236Z,2.11
2023-02-15T19:32:20.018Z,2.07
2023-02-15T19:34:50.210Z,2.02
2023-02-15T19:37:24.358Z,2.09
2023-02-15T19:39:53.306Z,2.02
2023-02-15T19:42:23.792Z,2.12
2023-02-15T19:44:52.673Z,1.91
2023-02-15T19:47:22.146Z,2.13
2023-02-15T19:49:52.260Z,2.06
2023-02-15T19:52:24.352Z,2.09
2023-02-15T19:54:54.527Z,2.19
2023-02-15T19:57:23.909Z,2.20
2023-02-15T19:59:52.569Z,2.17
2023-02-15T20:02:21.256Z,2.07
2023-02-15T20:04:49.917Z,2.11
2023-02-15T20:07:24.194Z,2.12
2023-02-15T20:09:53.146Z,2.09
2023-02-15T20:12:23.264Z,2.07
2023-02-15T20:14:52.142Z,1.95
2023-02-15T20:17:21.138Z,1.96
2023-02-15T20:19:49.800Z,1.95
2023-02-15T20:22:21.872Z,1.91
2023-02-15T20:24:52.119Z,1.90
2023-02-15T20:27:21.624Z,1.95
2023-02-15T20:29:50.768Z,1.94
2023-02-15T20:32:19.651Z,1.93
2023-02-15T20:34:48.551Z,1.93
2023-02-15T20:37:23.450Z,1.86
2023-02-15T20:39:53.573Z,1.72
2023-02-15T20:42:22.393Z,1.59
2023-02-15T20:44:50.979Z,1.71
2023-02-15T20:47:19.694Z,1.76
2023-02-15T20:49:48.425Z,1.73
2023-02-15T20:52:20.576Z,1.73
2023-02-15T20:54:49.191Z,1.65
2023-02-15T20:57:19.323Z,1.62
2023-02-15T20:59:48.128Z,1.50
2023-02-15T21:02:18.168Z,1.49
2023-02-15T21:04:46.917Z,1.46
2023-02-15T21:07:15.633Z,1.46
2023-02-15T21:09:44.624Z,1.40
2023-02-15T21:12:14.864Z,1.34
2023-02-15T21:14:45.085Z,1.29
2023-02-15T21:17:14.068Z,1.35
2023-02-15T21:19:42.845Z,1.29
2023-02-15T21:22:13.464Z,1.22
2023-02-15T21:24:50.657Z,1.21
2023-02-15T21:27:19.371Z,1.20
2023-02-15T21:29:49.489Z,1.14
2023-02-15T21:32:19.081Z,1.13
2023-02-15T21:34:47.799Z,1.08
2023-02-15T21:37:28.778Z,1.11
2023-02-15T21:39:57.455Z,1.09
2023-02-15T21:42:43.138Z,1.17
2023-02-15T21:45:34.100Z,1.07
2023-02-15T21:48:03.108Z,1.04
2023-02-15T21:50:48.782Z,1.05
2023-02-15T21:53:22.177Z,1.05
2023-02-15T21:55:50.767Z,1.00
2023-02-15T21:58:21.583Z,0.99
2023-02-15T22:00:54.878Z,0.98
2023-02-15T22:03:24.274Z,0.97
2023-02-15T22:05:53.153Z,0.92
2023-02-15T22:08:21.801Z,0.94
2023-02-15T22:10:50.398Z,0.90
2023-02-15T22:13:21.321Z,0.91
2023-02-15T22:15:50.187Z,0.89
2023-02-15T22:18:22.967Z,0.84
2023-02-15T22:20:51.697Z,0.85
2023-02-15T22:23:20.407Z,0.88
2023-02-15T22:25:54.883Z,0.95
2023-02-15T22:28:26.437Z,0.83
2023-02-15T22:30:55.118Z,0.90
2023-02-15T22:33:29.655Z,0.83
2023-02-15T22:35:58.465Z,0.76
2023-02-15T22:38:27.109Z,0.78
2023-02-15T22:40:57.098Z,0.81
2023-02-15T22:43:43.517Z,0.81
2023-02-15T22:46:16.676Z,0.78
2023-02-15T22:48:47.895Z,0.80
2023-02-15T22:51:17.226Z,0.77
2023-02-15T22:53:46.197Z,0.80
2023-02-15T22:56:18.698Z,0.81
2023-02-15T22:58:49.707Z,0.83
2023-02-15T23:01:23.532Z,0.80
2023-02-15T23:03:53.683Z,0.70
2023-02-15T23:06:22.233Z,0.73
2023-02-15T23:08:50.885Z,0.75
2023-02-15T23:11:19.968Z,0.70
2023-02-15T23:13:49.241Z,0.66
2023-02-15T23:16:18.182Z,0.62
2023-02-15T23:18:48.101Z,0.66
2023-02-15T23:21:21.188Z,0.61
2023-02-15T23:23:51.050Z,0.45
2023-02-15T23:26:21.604Z,0.45
2023-02-15T23:28:50.927Z,0.20
2023-02-15T23:31:21.131Z,0.37
2023-02-15T23:33:50.361Z,0.36
2023-02-15T23:36:31.077Z,0.35
2023-02-15T23:39:20.627Z,0.35
2023-02-15T23:41:48.208Z,0.35
2023-02-15T23:44:16.851Z,0.33
2023-02-15T23:46:46.799Z,0.31
2023-02-15T23:49:16.162Z,0.30
2023-02-15T23:51:46.966Z,0.30
2023-02-15T23:54:16.369Z,0.27
2023-02-15T23:56:45.760Z,0.29
2023-02-15T23:59:17.186Z,0.31
